Time;durP1;ratioP1;P1;durP2;ratioP2;P2;SDS_P1;SDS_P2;PMS_P1;PMS_P2;Temp;Humidity;BMP_temperature;BMP_pressure;BME280_temperature;BME280_humidity;BME280_pressure;Samples;Min_cycle;Max_cycle;Signal;HPM_P1;HPM_P2
2023/03/01 00:01:24;;;;;;;39.90;21.13;;;;;;;;;;5095626;28;20089;-78
2023/03/01 00:03:51;;;;;;;37.58;24.38;;;;;;;;;;5098153;28;20470;-78
2023/03/01 00:06:17;;;;;;;67.68;23.83;;;;;;;;;;5096063;28;20370;-78
2023/03/01 00:08:43;;;;;;;221.48;24.05;;;;;;;;;;5097735;28;20044;-78
2023/03/01 00:11:12;;;;;;;308.50;26.80;;;;;;;;;;5097023;28;20048;-78
2023/03/01 00:13:38;;;;;;;40.42;21.75;;;;;;;;;;5097510;28;20048;-78
2023/03/01 00:16:06;;;;;;;79.22;22.92;;;;;;;;;;5095933;28;20059;-78
2023/03/01 00:18:32;;;;;;;38.70;22.77;;;;;;;;;;5095911;28;20460;-78
2023/03/01 00:20:58;;;;;;;35.35;23.33;;;;;;;;;;5097021;28;20043;-78
2023/03/01 00:23:24;;;;;;;34.83;24.33;;;;;;;;;;5093724;28;20044;-78
2023/03/01 00:25:50;;;;;;;31.58;23.08;;;;;;;;;;5096838;28;20060;-78
2023/03/01 00:28:17;;;;;;;31.27;23.35;;;;;;;;;;5096893;28;20051;-78
2023/03/01 00:30:43;;;;;;;125.78;26.17;;;;;;;;;;5087649;28;20044;-78
2023/03/01 00:33:09;;;;;;;39.20;24.10;;;;;;;;;;5076436;28;20048;-78
2023/03/01 00:35:35;;;;;;;37.25;24.13;;;;;;;;;;5077462;28;20040;-78
2023/03/01 00:38:03;;;;;;;31.05;22.58;;;;;;;;;;5076241;28;20394;-78
2023/03/01 00:40:29;;;;;;;26.38;19.58;;;;;;;;;;5086420;28;20052;-77
2023/03/01 00:42:56;;;;;;;27.75;20.60;;;;;;;;;;5096378;28;20402;-78
2023/03/01 00:45:22;;;;;;;34.42;22.88;;;;;;;;;;5096545;28;20040;-78
2023/03/01 00:47:51;;;;;;;43.33;21.90;;;;;;;;;;5097496;28;20410;-78
2023/03/01 00:50:17;;;;;;;27.63;20.30;;;;;;;;;;5096409;28;20124;-78
2023/03/01 00:52:43;;;;;;;24.58;19.17;;;;;;;;;;5097382;28;20051;-78
2023/03/01 00:55:10;;;;;;;27.27;19.88;;;;;;;;;;5115239;28;20046;-78
2023/03/01 00:57:36;;;;;;;31.45;22.85;;;;;;;;;;5108300;28;20402;-78
2023/03/01 01:00:04;;;;;;;28.98;21.20;;;;;;;;;;5096281;28;20040;-78
2023/03/01 01:02:30;;;;;;;27.83;20.67;;;;;;;;;;5095867;28;20052;-78
2023/03/01 01:04:56;;;;;;;30.83;21.70;;;;;;;;;;5095671;28;20421;-78
2023/03/01 01:07:22;;;;;;;34.67;23.38;;;;;;;;;;5095378;28;20054;-78
2023/03/01 01:09:48;;;;;;;32.45;22.23;;;;;;;;;;5095162;28;20040;-79
2023/03/01 01:12:14;;;;;;;34.20;23.05;;;;;;;;;;5095146;28;20036;-78
2023/03/01 01:14:40;;;;;;;31.95;22.80;;;;;;;;;;5094863;28;20048;-78
2023/03/01 01:17:06;;;;;;;27.52;19.70;;;;;;;;;;5096922;28;20051;-78
2023/03/01 01:19:32;;;;;;;28.60;21.17;;;;;;;;;;5095012;28;20043;-78
2023/03/01 01:21:58;;;;;;;28.50;21.40;;;;;;;;;;5094254;28;20387;-78
2023/03/01 01:24:24;;;;;;;30.17;21.50;;;;;;;;;;5088131;28;20070;-78
2023/03/01 01:26:50;;;;;;;41.90;36.42;;;;;;;;;;5084843;28;20694;-79
2023/03/01 01:29:16;;;;;;;46.88;41.78;;;;;;;;;;5095308;28;20062;-79
2023/03/01 01:31:43;;;;;;;34.80;25.13;;;;;;;;;;5090542;28;20516;-78
2023/03/01 01:34:13;;;;;;;29.60;22.08;;;;;;;;;;5095356;28;20564;-78
2023/03/01 01:36:39;;;;;;;43.42;25.15;;;;;;;;;;5095033;28;20531;-78
2023/03/01 01:39:05;;;;;;;34.10;25.83;;;;;;;;;;5094433;28;20039;-78
2023/03/01 01:41:31;;;;;;;28.75;21.38;;;;;;;;;;5094911;28;20055;-79
2023/03/01 01:44:09;;;;;;;31.15;21.92;;;;;;;;;;5094267;28;20112;-79
2023/03/01 01:46:37;;;;;;;35.45;25.88;;;;;;;;;;5095394;28;20058;-78
2023/03/01 01:49:11;;;;;;;33.33;24.77;;;;;;;;;;5078744;28;20040;-79
2023/03/01 01:51:39;;;;;;;29.25;20.85;;;;;;;;;;5074251;28;20146;-79
2023/03/01 01:54:17;;;;;;;29.10;21.40;;;;;;;;;;5081436;28;20048;-78
2023/03/01 01:56:45;;;;;;;31.60;23.13;;;;;;;;;;5075469;28;20040;-79
2023/03/01 01:59:11;;;;;;;42.60;23.92;;;;;;;;;;5075194;28;20041;-78
2023/03/01 02:01:37;;;;;;;35.90;23.08;;;;;;;;;;5074463;28;20099;-79
2023/03/01 02:04:06;;;;;;;32.25;22.08;;;;;;;;;;5074164;28;20499;-78
2023/03/01 02:06:34;;;;;;;35.30;23.02;;;;;;;;;;5093431;28;20056;-78
2023/03/01 02:09:07;;;;;;;32.92;22.45;;;;;;;;;;5094338;28;20398;-78
2023/03/01 02:11:33;;;;;;;33.15;22.85;;;;;;;;;;5095140;28;20486;-78
2023/03/01 02:13:59;;;;;;;37.30;25.40;;;;;;;;;;5095332;28;20101;-79
2023/03/01 02:16:26;;;;;;;33.78;24.20;;;;;;;;;;5077370;28;20148;-78
2023/03/01 02:18:53;;;;;;;31.95;23.98;;;;;;;;;;5075132;28;20044;-78
2023/03/01 02:21:37;;;;;;;31.75;22.85;;;;;;;;;;5075778;28;20045;-78
2023/03/01 02:24:12;;;;;;;30.35;22.10;;;;;;;;;;5092796;28;20051;-78
2023/03/01 02:26:41;;;;;;;31.02;23.17;;;;;;;;;;5095647;28;20055;-78
2023/03/01 02:29:07;;;;;;;27.85;20.58;;;;;;;;;;5094045;28;20052;-77
2023/03/01 02:31:42;;;;;;;31.40;22.52;;;;;;;;;;5090737;28;20485;-78
2023/03/01 02:34:16;;;;;;;29.38;21.95;;;;;;;;;;5085996;28;20076;-78
2023/03/01 02:36:47;;;;;;;31.23;21.50;;;;;;;;;;5087642;28;20127;-77
2023/03/01 02:39:28;;;;;;;29.20;21.85;;;;;;;;;;5083570;28;20537;-78
2023/03/01 02:41:56;;;;;;;28.05;20.02;;;;;;;;;;5095762;28;20502;-78
2023/03/01 02:44:22;;;;;;;30.73;21.00;;;;;;;;;;5095643;28;20113;-78
2023/03/01 02:46:50;;;;;;;29.10;21.88;;;;;;;;;;5095289;28;20051;-78
2023/03/01 02:49:19;;;;;;;31.52;21.00;;;;;;;;;;5095087;28;20051;-78
2023/03/01 02:51:48;;;;;;;28.85;20.67;;;;;;;;;;5087448;28;20123;-78
2023/03/01 02:54:17;;;;;;;29.58;21.02;;;;;;;;;;5087538;28;20047;-78
2023/03/01 02:56:43;;;;;;;27.48;20.83;;;;;;;;;;5077906;28;20440;-78
2023/03/01 02:59:10;;;;;;;25.25;20.05;;;;;;;;;;5087321;28;20122;-78
2023/03/01 03:01:37;;;;;;;26.15;18.80;;;;;;;;;;5092635;28;20406;-78
2023/03/01 03:04:07;;;;;;;26.70;20.02;;;;;;;;;;5079535;28;20047;-78
2023/03/01 03:06:33;;;;;;;27.45;20.42;;;;;;;;;;5098313;28;20042;-78
2023/03/01 03:08:59;;;;;;;28.45;19.60;;;;;;;;;;5101489;28;20047;-79
2023/03/01 03:11:26;;;;;;;27.75;19.15;;;;;;;;;;5079946;28;20062;-79
2023/03/01 03:13:52;;;;;;;26.25;18.40;;;;;;;;;;5072692;28;20048;-79
2023/03/01 03:16:18;;;;;;;24.95;19.25;;;;;;;;;;5093559;28;20383;-78
2023/03/01 03:18:44;;;;;;;26.90;19.67;;;;;;;;;;5083014;28;20045;-78
2023/03/01 03:21:12;;;;;;;27.23;19.65;;;;;;;;;;5080174;28;20448;-78
2023/03/01 03:23:39;;;;;;;26.90;20.05;;;;;;;;;;5091163;28;20040;-79
2023/03/01 03:26:05;;;;;;;26.48;20.58;;;;;;;;;;5074959;28;20048;-79
2023/03/01 03:28:39;;;;;;;28.25;19.75;;;;;;;;;;5075428;28;20532;-79
2023/03/01 03:31:06;;;;;;;25.73;19.23;;;;;;;;;;5089617;28;20059;-79
2023/03/01 03:33:32;;;;;;;26.95;21.05;;;;;;;;;;5085298;28;20051;-79
2023/03/01 03:35:58;;;;;;;28.90;20.38;;;;;;;;;;5093966;28;20414;-79
2023/03/01 03:38:25;;;;;;;30.02;20.40;;;;;;;;;;5085845;28;20045;-79
2023/03/01 03:40:52;;;;;;;27.38;19.05;;;;;;;;;;5080001;28;20514;-78
2023/03/01 03:43:20;;;;;;;31.92;20.40;;;;;;;;;;5090105;28;20101;-78
2023/03/01 03:45:47;;;;;;;25.30;18.98;;;;;;;;;;5075555;28;20394;-79
2023/03/01 03:48:13;;;;;;;25.05;18.45;;;;;;;;;;5080878;28;20410;-78
2023/03/01 03:50:40;;;;;;;24.77;18.83;;;;;;;;;;5076915;28;20043;-78
2023/03/01 03:53:08;;;;;;;25.90;18.27;;;;;;;;;;5080590;28;20040;-79
2023/03/01 03:55:35;;;;;;;25.98;18.25;;;;;;;;;;5097818;28;20055;-78
2023/03/01 03:58:02;;;;;;;24.40;18.73;;;;;;;;;;5084822;28;20153;-78
2023/03/01 04:00:28;;;;;;;27.83;18.85;;;;;;;;;;5087041;28;20051;-78
2023/03/01 04:02:56;;;;;;;24.60;18.33;;;;;;;;;;5076271;28;20044;-78
2023/03/01 04:05:23;;;;;;;26.23;18.95;;;;;;;;;;5074125;28;20075;-78
2023/03/01 04:08:00;;;;;;;27.10;17.77;;;;;;;;;;5087285;28;20075;-78
2023/03/01 04:10:27;;;;;;;26.38;18.13;;;;;;;;;;5075969;28;20580;-78
2023/03/01 04:12:53;;;;;;;25.85;20.02;;;;;;;;;;5087412;28;20059;-78
2023/03/01 04:15:19;;;;;;;27.83;19.85;;;;;;;;;;5094744;28;20052;-79
2023/03/01 04:17:47;;;;;;;27.20;18.52;;;;;;;;;;5096214;28;20044;-79
2023/03/01 04:20:24;;;;;;;19.17;16.05;;;;;;;;;;5081279;28;20040;-79
2023/03/01 04:22:50;;;;;;;19.40;15.82;;;;;;;;;;5075848;28;20119;-79
2023/03/01 04:25:16;;;;;;;21.92;17.02;;;;;;;;;;5075760;28;20048;-78
2023/03/01 04:27:42;;;;;;;21.52;16.08;;;;;;;;;;5076151;28;20044;-79
2023/03/01 04:30:10;;;;;;;21.30;16.77;;;;;;;;;;5077430;28;20090;-78
2023/03/01 04:32:36;;;;;;;20.80;16.25;;;;;;;;;;5089682;28;20044;-78
2023/03/01 04:35:02;;;;;;;22.13;16.05;;;;;;;;;;5075325;28;20044;-79
2023/03/01 04:37:29;;;;;;;21.90;16.98;;;;;;;;;;5075619;28;20041;-78
2023/03/01 04:39:55;;;;;;;22.23;16.65;;;;;;;;;;5089144;28;20036;-78
2023/03/01 04:42:21;;;;;;;23.65;17.25;;;;;;;;;;5096773;28;20052;-78
2023/03/01 04:44:47;;;;;;;24.73;17.92;;;;;;;;;;5094767;28;20502;-79
2023/03/01 04:47:13;;;;;;;26.75;19.75;;;;;;;;;;5096871;28;20040;-78
2023/03/01 04:49:39;;;;;;;28.90;19.88;;;;;;;;;;5093062;28;20040;-78
2023/03/01 04:52:06;;;;;;;30.80;21.80;;;;;;;;;;5077494;28;20044;-78
2023/03/01 04:54:33;;;;;;;33.60;23.45;;;;;;;;;;5088053;28;20143;-78
2023/03/01 04:56:59;;;;;;;32.10;22.58;;;;;;;;;;5097366;28;20047;-78
2023/03/01 04:59:25;;;;;;;28.98;21.48;;;;;;;;;;5095888;28;20040;-78
2023/03/01 05:01:52;;;;;;;31.67;22.77;;;;;;;;;;5096488;28;20491;-78
2023/03/01 05:04:18;;;;;;;34.92;23.88;;;;;;;;;;5094496;28;20040;-78
2023/03/01 05:06:44;;;;;;;32.22;22.23;;;;;;;;;;5077266;28;20067;-78
2023/03/01 05:09:11;;;;;;;29.92;22.00;;;;;;;;;;5075371;28;20505;-78
2023/03/01 05:11:37;;;;;;;30.58;21.80;;;;;;;;;;5077554;28;20067;-78
2023/03/01 05:14:04;;;;;;;29.50;21.80;;;;;;;;;;5094598;28;20401;-78
2023/03/01 05:16:31;;;;;;;31.23;20.95;;;;;;;;;;5078171;28;20542;-78
2023/03/01 05:18:58;;;;;;;30.65;21.25;;;;;;;;;;5105844;28;20051;-79
2023/03/01 05:21:24;;;;;;;26.48;20.05;;;;;;;;;;5111665;28;20044;-78
2023/03/01 05:23:50;;;;;;;31.48;21.70;;;;;;;;;;5083041;28;20102;-78
2023/03/01 05:26:17;;;;;;;26.08;20.60;;;;;;;;;;5075776;28;20414;-79
2023/03/01 05:28:43;;;;;;;26.77;19.67;;;;;;;;;;5095163;28;20436;-78
2023/03/01 05:31:09;;;;;;;30.38;21.10;;;;;;;;;;5096234;28;20398;-79
2023/03/01 05:33:41;;;;;;;31.17;20.75;;;;;;;;;;5078985;28;20048;-77
2023/03/01 05:36:09;;;;;;;30.38;21.00;;;;;;;;;;5079324;28;20041;-79
2023/03/01 05:38:35;;;;;;;31.85;20.83;;;;;;;;;;5091799;28;20513;-78
2023/03/01 05:41:02;;;;;;;31.75;22.13;;;;;;;;;;5090169;28;20040;-80
2023/03/01 05:43:33;;;;;;;29.60;21.20;;;;;;;;;;5092913;28;20059;-78
2023/03/01 05:45:59;;;;;;;;;;;;;;;;;;5095767;28;20054;-78
2023/03/01 05:48:26;;;;;;;29.27;20.45;;;;;;;;;;5095042;28;19920;-78
2023/03/01 05:50:52;;;;;;;27.05;19.10;;;;;;;;;;5095723;28;20044;-79
2023/03/01 05:53:23;;;;;;;27.23;19.67;;;;;;;;;;5095855;28;20449;-78
2023/03/01 05:55:49;;;;;;;28.33;21.42;;;;;;;;;;5083392;28;20043;-78
2023/03/01 05:58:17;;;;;;;25.05;18.85;;;;;;;;;;5089554;28;20051;-78
2023/03/01 06:00:44;;;;;;;25.00;18.15;;;;;;;;;;5084312;28;20410;-78
2023/03/01 06:03:11;;;;;;;26.45;18.70;;;;;;;;;;5082103;28;20093;-79
2023/03/01 06:05:37;;;;;;;27.08;19.70;;;;;;;;;;5096351;28;20044;-79
2023/03/01 06:08:03;;;;;;;26.15;19.50;;;;;;;;;;5094202;28;20379;-78
2023/03/01 06:10:30;;;;;;;26.58;19.40;;;;;;;;;;5088989;28;20048;-78
2023/03/01 06:12:56;;;;;;;27.23;19.77;;;;;;;;;;5088621;28;20044;-79
2023/03/01 06:15:22;;;;;;;30.27;19.70;;;;;;;;;;5074565;28;20044;-78
2023/03/01 06:17:48;;;;;;;28.55;19.60;;;;;;;;;;5075084;28;20075;-78
2023/03/01 06:20:16;;;;;;;26.05;18.90;;;;;;;;;;5082318;28;20086;-78
2023/03/01 06:22:43;;;;;;;27.77;19.92;;;;;;;;;;5092862;28;20077;-78
2023/03/01 06:25:10;;;;;;;23.90;18.83;;;;;;;;;;5089807;28;20048;-78
2023/03/01 06:27:36;;;;;;;25.85;18.52;;;;;;;;;;5083164;28;20044;-78
2023/03/01 06:30:03;;;;;;;26.88;19.38;;;;;;;;;;5082573;28;20135;-78
2023/03/01 06:32:30;;;;;;;26.02;20.00;;;;;;;;;;5089414;28;20514;-79
2023/03/01 06:34:56;;;;;;;24.63;19.05;;;;;;;;;;5072624;28;20128;-78
2023/03/01 06:37:22;;;;;;;28.83;19.95;;;;;;;;;;5087246;28;20051;-78
2023/03/01 06:39:49;;;;;;;28.48;20.40;;;;;;;;;;5082173;28;20052;-79
2023/03/01 06:42:15;;;;;;;33.90;21.20;;;;;;;;;;5071826;28;20041;-78
2023/03/01 06:44:41;;;;;;;38.63;21.88;;;;;;;;;;5071894;28;20048;-78
2023/03/01 06:47:07;;;;;;;33.22;20.83;;;;;;;;;;5073826;28;20053;-78
2023/03/01 06:49:33;;;;;;;26.88;19.90;;;;;;;;;;5074846;28;20162;-78
2023/03/01 06:51:59;;;;;;;26.33;19.67;;;;;;;;;;5077151;28;20080;-78
2023/03/01 06:54:25;;;;;;;28.48;20.20;;;;;;;;;;5085357;28;20097;-79
2023/03/01 06:56:51;;;;;;;26.58;19.50;;;;;;;;;;5080412;28;20494;-78
2023/03/01 06:59:18;;;;;;;27.42;20.13;;;;;;;;;;5078460;28;20040;-78
2023/03/01 07:01:44;;;;;;;28.17;19.77;;;;;;;;;;5083446;28;20071;-76
2023/03/01 07:04:11;;;;;;;27.30;20.25;;;;;;;;;;5079663;28;20075;-77
2023/03/01 07:06:37;;;;;;;28.60;20.60;;;;;;;;;;5089151;28;20455;-78
2023/03/01 07:09:03;;;;;;;28.02;21.05;;;;;;;;;;5084844;28;20049;-78
2023/03/01 07:11:29;;;;;;;30.00;21.35;;;;;;;;;;5076003;28;20048;-78
2023/03/01 07:13:56;;;;;;;29.25;21.30;;;;;;;;;;5077072;28;20052;-77
2023/03/01 07:16:22;;;;;;;27.45;20.75;;;;;;;;;;5075346;28;20127;-78
2023/03/01 07:18:48;;;;;;;28.20;21.35;;;;;;;;;;5076617;28;20471;-78
2023/03/01 07:21:16;;;;;;;29.58;21.48;;;;;;;;;;5081592;28;20045;-78
2023/03/01 07:23:42;;;;;;;29.00;21.27;;;;;;;;;;5074566;28;20045;-77
2023/03/01 07:26:08;;;;;;;23.48;19.27;;;;;;;;;;5093487;28;20055;-77
2023/03/01 07:28:35;;;;;;;24.48;19.98;;;;;;;;;;5084212;28;20090;-77
2023/03/01 07:31:05;;;;;;;28.13;21.17;;;;;;;;;;5088109;28;22650;-77
2023/03/01 07:33:31;;;;;;;36.53;25.10;;;;;;;;;;5092302;28;20073;-77
2023/03/01 07:35:58;;;;;;;39.25;26.45;;;;;;;;;;5082361;28;20044;-78
2023/03/01 07:38:25;;;;;;;41.40;28.50;;;;;;;;;;5085340;28;20040;-78
2023/03/01 07:40:51;;;;;;;48.67;29.90;;;;;;;;;;5083055;28;20048;-78
2023/03/01 07:43:17;;;;;;;43.97;27.70;;;;;;;;;;5094709;28;20044;-78
2023/03/01 07:45:43;;;;;;;41.17;27.45;;;;;;;;;;5092026;28;20139;-78
2023/03/01 07:48:09;;;;;;;41.90;27.73;;;;;;;;;;5075753;28;20048;-77
2023/03/01 07:50:35;;;;;;;37.45;25.83;;;;;;;;;;5079715;28;20044;-77
2023/03/01 07:53:02;;;;;;;36.97;27.05;;;;;;;;;;5078796;28;20490;-79
2023/03/01 07:55:28;;;;;;;39.17;28.40;;;;;;;;;;5084533;28;20055;-78
2023/03/01 07:57:54;;;;;;;36.88;25.95;;;;;;;;;;5087762;28;20052;-78
2023/03/01 08:00:20;;;;;;;32.92;26.27;;;;;;;;;;5084719;28;20047;-78
2023/03/01 08:02:47;;;;;;;31.17;25.63;;;;;;;;;;5083715;28;20059;-78
2023/03/01 08:05:13;;;;;;;33.53;24.92;;;;;;;;;;5091093;28;20591;-78
2023/03/01 08:07:39;;;;;;;32.65;25.52;;;;;;;;;;5075556;28;20040;-77
2023/03/01 08:10:05;;;;;;;33.45;26.77;;;;;;;;;;5081313;28;20044;-79
2023/03/01 08:12:31;;;;;;;32.55;26.35;;;;;;;;;;5095833;28;20160;-79
2023/03/01 08:14:57;;;;;;;41.28;28.40;;;;;;;;;;5095367;28;20044;-78
2023/03/01 08:17:23;;;;;;;34.30;28.33;;;;;;;;;;5094481;28;20513;-79
2023/03/01 08:19:49;;;;;;;36.75;28.85;;;;;;;;;;5091974;28;20052;-79
2023/03/01 08:22:15;;;;;;;37.15;29.98;;;;;;;;;;5076217;28;20044;-79
2023/03/01 08:24:41;;;;;;;41.50;30.63;;;;;;;;;;5089347;28;20045;-78
2023/03/01 08:27:08;;;;;;;39.20;30.23;;;;;;;;;;5073055;28;20060;-77
2023/03/01 08:29:34;;;;;;;37.08;30.73;;;;;;;;;;5077833;28;20104;-79
2023/03/01 08:32:01;;;;;;;39.47;31.10;;;;;;;;;;5076771;28;20582;-79
2023/03/01 08:34:27;;;;;;;40.63;29.98;;;;;;;;;;5055592;28;20040;-79
2023/03/01 08:36:53;;;;;;;38.20;29.13;;;;;;;;;;5074277;28;20043;-79
2023/03/01 08:39:20;;;;;;;44.20;31.83;;;;;;;;;;5078332;28;20048;-79
2023/03/01 08:41:47;;;;;;;41.50;32.22;;;;;;;;;;5095133;28;20051;-79
2023/03/01 08:44:16;;;;;;;43.03;31.48;;;;;;;;;;5094688;28;20127;-79
2023/03/01 08:46:44;;;;;;;39.90;29.50;;;;;;;;;;5094879;28;20104;-79
2023/03/01 08:49:15;;;;;;;38.65;30.92;;;;;;;;;;5086787;28;20044;-80
2023/03/01 08:51:41;;;;;;;39.70;30.13;;;;;;;;;;5078053;28;20141;-77
2023/03/01 08:54:08;;;;;;;40.40;29.67;;;;;;;;;;5074033;28;20448;-77
2023/03/01 08:56:34;;;;;;;39.28;28.27;;;;;;;;;;5077178;28;20430;-77
2023/03/01 08:59:00;;;;;;;36.90;26.77;;;;;;;;;;5077948;28;20048;-77
2023/03/01 09:01:26;;;;;;;38.33;29.33;;;;;;;;;;5087821;28;20555;-77
2023/03/01 09:03:52;;;;;;;40.30;29.23;;;;;;;;;;5083188;28;20053;-78
2023/03/01 09:06:18;;;;;;;38.58;30.23;;;;;;;;;;5083227;28;20063;-78
2023/03/01 09:08:46;;;;;;;37.97;29.73;;;;;;;;;;5079251;28;20132;-79
2023/03/01 09:11:13;;;;;;;38.03;27.58;;;;;;;;;;5076284;28;20048;-78
2023/03/01 09:13:39;;;;;;;36.33;26.80;;;;;;;;;;5074750;28;20072;-78
2023/03/01 09:16:07;;;;;;;46.95;31.98;;;;;;;;;;5073946;28;20052;-79
2023/03/01 09:18:33;;;;;;;45.33;28.67;;;;;;;;;;5076262;28;20045;-79
2023/03/01 09:21:07;;;;;;;33.40;24.30;;;;;;;;;;5076154;28;20044;-79
2023/03/01 09:23:38;;;;;;;34.13;25.38;;;;;;;;;;5074609;28;20036;-79
2023/03/01 09:26:05;;;;;;;32.53;23.95;;;;;;;;;;5077597;28;20056;-79
2023/03/01 09:28:31;;;;;;;28.60;21.90;;;;;;;;;;5077997;28;20048;-79
2023/03/01 09:31:00;;;;;;;29.48;22.17;;;;;;;;;;5075308;28;20093;-79
2023/03/01 09:33:27;;;;;;;32.45;22.35;;;;;;;;;;5086504;28;20038;-79
2023/03/01 09:36:04;;;;;;;31.90;24.23;;;;;;;;;;5086264;28;20044;-79
2023/03/01 09:38:30;;;;;;;31.65;22.45;;;;;;;;;;5091813;28;20068;-79
2023/03/01 09:40:56;;;;;;;35.20;25.02;;;;;;;;;;5078064;28;20083;-79
2023/03/01 09:43:36;;;;;;;33.65;24.17;;;;;;;;;;5074810;28;20439;-79
2023/03/01 09:46:08;;;;;;;32.95;22.92;;;;;;;;;;5084152;28;20036;-79
2023/03/01 09:48:40;;;;;;;33.50;24.27;;;;;;;;;;5084499;28;20560;-78
2023/03/01 09:51:09;;;;;;;33.70;23.48;;;;;;;;;;5073923;28;20036;-79
2023/03/01 09:53:35;;;;;;;30.92;21.98;;;;;;;;;;5075795;28;20512;-79
2023/03/01 09:56:05;;;;;;;22.42;16.77;;;;;;;;;;5087496;28;20051;-78
2023/03/01 09:58:31;;;;;;;35.10;25.40;;;;;;;;;;5084671;28;20055;-78
2023/03/01 10:01:00;;;;;;;33.15;23.45;;;;;;;;;;5080896;28;20077;-79
2023/03/01 10:03:37;;;;;;;24.15;16.95;;;;;;;;;;5082943;28;20379;-78
2023/03/01 10:06:09;;;;;;;22.60;15.75;;;;;;;;;;5081827;28;20129;-79
2023/03/01 10:08:36;;;;;;;;;;;;;;;;;;5073486;28;20091;-79
2023/03/01 10:11:02;;;;;;;19.30;12.73;;;;;;;;;;5075082;28;19927;-78
2023/03/01 10:13:41;;;;;;;12.90;8.13;;;;;;;;;;5086080;28;20044;-79
2023/03/01 10:16:14;;;;;;;11.25;6.78;;;;;;;;;;5076395;28;20101;-79
2023/03/01 10:18:40;;;;;;;10.18;6.57;;;;;;;;;;5072016;28;20105;-79
2023/03/01 10:21:17;;;;;;;11.10;6.93;;;;;;;;;;5081925;28;20040;-79
2023/03/01 10:23:43;;;;;;;10.32;6.22;;;;;;;;;;5080524;28;20081;-79
2023/03/01 10:26:18;;;;;;;13.25;7.50;;;;;;;;;;5077698;28;20049;-79
2023/03/01 10:28:47;;;;;;;15.45;8.95;;;;;;;;;;5090946;28;20043;-81
2023/03/01 10:31:21;;;;;;;10.15;5.60;;;;;;;;;;5096476;28;20479;-79
2023/03/01 10:33:51;;;;;;;12.50;8.10;;;;;;;;;;5092461;28;20416;-79
2023/03/01 10:36:17;;;;;;;12.73;6.43;;;;;;;;;;5081378;28;20424;-79
2023/03/01 10:38:54;;;;;;;11.95;7.68;;;;;;;;;;5075458;28;20044;-79
2023/03/01 10:41:23;;;;;;;12.50;7.50;;;;;;;;;;5079300;28;20044;-78
2023/03/01 10:43:57;;;;;;;12.32;8.30;;;;;;;;;;5078638;28;20048;-78
2023/03/01 10:46:23;;;;;;;12.93;8.68;;;;;;;;;;5079263;28;20048;-79
2023/03/01 10:49:12;;;;;;;11.82;8.18;;;;;;;;;;5089700;28;20101;-78
2023/03/01 10:51:40;;;;;;;12.25;8.15;;;;;;;;;;5098337;28;20062;-79
2023/03/01 10:54:15;;;;;;;12.93;7.82;;;;;;;;;;5085694;28;20048;-79
2023/03/01 10:56:48;;;;;;;12.85;7.68;;;;;;;;;;5078458;28;20063;-79
2023/03/01 10:59:31;;;;;;;10.68;6.30;;;;;;;;;;5077443;28;20048;-78
2023/03/01 11:02:09;;;;;;;12.32;7.13;;;;;;;;;;5076297;28;20044;-79
2023/03/01 11:04:35;;;;;;;11.90;7.45;;;;;;;;;;5076030;28;20135;-78
2023/03/01 11:07:02;;;;;;;10.93;7.57;;;;;;;;;;5089744;28;20056;-77
2023/03/01 11:09:37;;;;;;;13.07;7.38;;;;;;;;;;5077830;28;20115;-77
2023/03/01 11:12:04;;;;;;;12.20;7.38;;;;;;;;;;5084897;28;20044;-78
2023/03/01 11:14:40;;;;;;;10.57;7.22;;;;;;;;;;5076684;28;20331;-78
2023/03/01 11:17:13;;;;;;;12.27;7.57;;;;;;;;;;5074666;28;20340;-77
2023/03/01 11:19:39;;;;;;;11.63;7.40;;;;;;;;;;5076724;28;20044;-77
2023/03/01 11:22:12;;;;;;;11.70;5.90;;;;;;;;;;5077997;28;20047;-78
2023/03/01 11:24:43;;;;;;;11.57;6.32;;;;;;;;;;5075504;28;20048;-78
2023/03/01 11:27:30;;;;;;;10.15;6.40;;;;;;;;;;5077774;28;20553;-78
2023/03/01 11:29:56;;;;;;;11.77;6.88;;;;;;;;;;5092703;28;20040;-78
2023/03/01 11:32:24;;;;;;;11.25;6.88;;;;;;;;;;5088787;28;20044;-77
2023/03/01 11:34:56;;;;;;;12.05;7.22;;;;;;;;;;5076392;28;20158;-78
2023/03/01 11:37:28;;;;;;;12.00;7.35;;;;;;;;;;5078128;28;20129;-78
2023/03/01 11:40:06;;;;;;;14.43;7.88;;;;;;;;;;5083878;28;20044;-78
2023/03/01 11:42:38;;;;;;;12.70;7.75;;;;;;;;;;5073141;28;20101;-78
2023/03/01 11:45:07;;;;;;;10.38;6.50;;;;;;;;;;5074840;28;20048;-78
2023/03/01 11:47:52;;;;;;;12.57;6.70;;;;;;;;;;5087913;28;20040;-77
2023/03/01 11:50:27;;;;;;;10.15;6.43;;;;;;;;;;5073069;28;20140;-78
2023/03/01 11:53:02;;;;;;;11.23;5.80;;;;;;;;;;5072905;28;20048;-78
2023/03/01 11:55:40;;;;;;;9.88;5.80;;;;;;;;;;5074841;28;20467;-77
2023/03/01 11:58:27;;;;;;;9.18;5.75;;;;;;;;;;5094635;28;20044;-78
2023/03/01 12:01:01;;;;;;;10.35;6.55;;;;;;;;;;5091591;28;20145;-78
2023/03/01 12:03:46;;;;;;;10.20;5.72;;;;;;;;;;5092398;28;20079;-77
2023/03/01 12:06:23;;;;;;;10.40;6.40;;;;;;;;;;5085844;28;20061;-78
2023/03/01 12:09:00;;;;;;;12.73;6.65;;;;;;;;;;5073960;28;20083;-78
2023/03/01 12:11:34;;;;;;;11.65;6.35;;;;;;;;;;5072349;28;20151;-78
2023/03/01 12:14:03;;;;;;;11.57;6.80;;;;;;;;;;5071343;28;20056;-77
2023/03/01 12:16:41;;;;;;;11.02;7.05;;;;;;;;;;5072152;28;20037;-78
2023/03/01 12:19:21;;;;;;;12.27;7.22;;;;;;;;;;5073661;28;20363;-77
2023/03/01 12:21:50;;;;;;;12.20;7.45;;;;;;;;;;5081457;28;20048;-78
2023/03/01 12:24:27;;;;;;;13.80;7.93;;;;;;;;;;5091454;28;20476;-77
2023/03/01 12:27:10;;;;;;;13.15;7.90;;;;;;;;;;5080717;28;20102;-78
2023/03/01 12:29:44;;;;;;;14.68;8.30;;;;;;;;;;5090876;28;20043;-78
2023/03/01 12:32:10;;;;;;;12.20;8.50;;;;;;;;;;5083912;28;20059;-77
2023/03/01 12:34:36;;;;;;;12.35;8.65;;;;;;;;;;5076216;28;20055;-78
2023/03/01 12:37:05;;;;;;;17.30;9.88;;;;;;;;;;5084746;28;20113;-78
2023/03/01 12:39:50;;;;;;;13.50;8.90;;;;;;;;;;5086715;28;20043;-78
2023/03/01 12:42:34;;;;;;;18.27;10.98;;;;;;;;;;5080361;28;20048;-78
2023/03/01 12:45:12;;;;;;;13.73;8.80;;;;;;;;;;5087979;28;20458;-78
2023/03/01 12:47:39;;;;;;;18.13;11.20;;;;;;;;;;5083186;28;20487;-77
2023/03/01 12:50:12;;;;;;;13.50;8.95;;;;;;;;;;5075690;28;20450;-77
2023/03/01 12:52:41;;;;;;;15.75;10.25;;;;;;;;;;5077246;28;20047;-78
2023/03/01 12:55:28;;;;;;;18.05;11.55;;;;;;;;;;5074726;28;20043;-78
2023/03/01 12:58:01;;;;;;;20.88;12.60;;;;;;;;;;5074527;28;20495;-78
2023/03/01 13:00:40;;;;;;;14.40;9.75;;;;;;;;;;5073244;28;20098;-78
2023/03/01 13:03:29;;;;;;;16.05;11.45;;;;;;;;;;5071231;28;20136;-78
2023/03/01 13:06:04;;;;;;;19.60;12.07;;;;;;;;;;5076547;28;20106;-78
2023/03/01 13:08:36;;;;;;;17.77;12.63;;;;;;;;;;5072405;28;20079;-78
2023/03/01 13:11:04;;;;;;;16.73;10.93;;;;;;;;;;5079082;28;20044;-66
2023/03/01 13:13:30;;;;;;;21.25;14.80;;;;;;;;;;5070655;28;20119;-71
2023/03/01 13:15:57;;;;;;;18.67;12.50;;;;;;;;;;5080821;28;20047;-65
2023/03/01 13:18:25;;;;;;;16.67;12.93;;;;;;;;;;5077829;28;20046;-67
2023/03/01 13:20:51;;;;;;;16.40;12.55;;;;;;;;;;5070355;28;20492;-66
2023/03/01 13:23:24;;;;;;;19.88;13.02;;;;;;;;;;5072655;28;20063;-66
2023/03/01 13:26:14;;;;;;;15.70;11.57;;;;;;;;;;5067248;28;20451;-79
2023/03/01 13:28:46;;;;;;;14.27;10.30;;;;;;;;;;5071415;28;20051;-77
2023/03/01 13:31:15;;;;;;;17.92;11.27;;;;;;;;;;5074067;28;20052;-77
2023/03/01 13:33:44;;;;;;;15.35;11.05;;;;;;;;;;5071991;28;20056;-77
2023/03/01 13:36:13;;;;;;;15.63;11.88;;;;;;;;;;5089668;28;20131;-76
2023/03/01 13:38:49;;;;;;;16.00;11.68;;;;;;;;;;5083598;28;20054;-77
2023/03/01 13:41:16;;;;;;;18.08;13.23;;;;;;;;;;5078709;28;20044;-77
2023/03/01 13:43:43;;;;;;;16.60;11.80;;;;;;;;;;5074861;28;20101;-77
2023/03/01 13:46:17;;;;;;;14.43;10.60;;;;;;;;;;5075948;28;20478;-77
2023/03/01 13:48:44;;;;;;;15.85;11.88;;;;;;;;;;5068926;28;20052;-77
2023/03/01 13:51:12;;;;;;;17.38;12.20;;;;;;;;;;5086058;28;20048;-77
2023/03/01 13:53:47;;;;;;;17.83;13.02;;;;;;;;;;5077322;28;20351;-77
2023/03/01 13:56:17;;;;;;;16.10;11.45;;;;;;;;;;5069790;28;20071;-77
2023/03/01 13:58:52;;;;;;;13.88;10.05;;;;;;;;;;5073778;28;20046;-77
2023/03/01 14:01:24;;;;;;;14.95;10.35;;;;;;;;;;5074371;28;20467;-77
2023/03/01 14:03:50;;;;;;;15.48;10.85;;;;;;;;;;5090495;28;20147;-77
2023/03/01 14:06:20;;;;;;;13.00;9.13;;;;;;;;;;5089587;28;20078;-77
2023/03/01 14:08:47;;;;;;;14.82;10.32;;;;;;;;;;5070734;28;20044;-77
2023/03/01 14:11:16;;;;;;;14.70;10.55;;;;;;;;;;5089920;28;20064;-77
2023/03/01 14:14:01;;;;;;;16.80;11.23;;;;;;;;;;5083999;28;20140;-77
2023/03/01 14:16:37;;;;;;;14.95;10.50;;;;;;;;;;5075781;28;20074;-77
2023/03/01 14:19:09;;;;;;;13.32;9.13;;;;;;;;;;5070531;28;20048;-77
2023/03/01 14:21:36;;;;;;;15.00;7.63;;;;;;;;;;5071844;28;20078;-77
2023/03/01 14:24:02;;;;;;;13.63;9.55;;;;;;;;;;5091361;28;20048;-77
2023/03/01 14:26:28;;;;;;;13.50;10.02;;;;;;;;;;5091449;28;20044;-77
2023/03/01 14:28:55;;;;;;;15.80;10.73;;;;;;;;;;5088318;28;20045;-77
2023/03/01 14:31:33;;;;;;;13.90;9.63;;;;;;;;;;5076091;28;20049;-77